Terminal Aerodrome Forecast
Issued by NWS

Home | Current Version | Previous Version | Text Only | Print | Product List | Glossary On
Versions: 1 2 3 4 5 6 7 8 9 10 11 12 13
084
FTUS42 KTAE 111733
TAFABY
TAF
KABY 111733Z 1118/1218 25008G15KT P6SM SKC
     FM120000 20005KT P6SM SCT050
     FM120900 21003KT 3SM BR SCT015
     FM121500 25010KT P6SM OVC050=

USA.gov is the U.S. government's official web portal to all federal, state and local government web resources and services.